createdAt,value
2018-07-16T00:01:31.973Z,18.60
2018-07-16T00:04:00.420Z,18.60
2018-07-16T00:06:28.861Z,18.50
2018-07-16T00:08:57.304Z,18.40
2018-07-16T00:11:25.806Z,18.40
2018-07-16T00:13:54.284Z,18.40
2018-07-16T00:16:22.712Z,18.40
2018-07-16T00:18:51.134Z,18.30
2018-07-16T00:21:19.540Z,18.30
2018-07-16T00:23:47.992Z,18.30
2018-07-16T00:26:16.412Z,18.30
2018-07-16T00:28:44.836Z,18.30
2018-07-16T00:31:13.272Z,18.30
2018-07-16T00:33:41.704Z,18.20
2018-07-16T00:36:10.133Z,18.20
2018-07-16T00:38:38.553Z,18.20
2018-07-16T00:41:07.053Z,18.20
2018-07-16T00:43:35.477Z,18.20
2018-07-16T00:46:04.235Z,18.20
2018-07-16T00:48:32.645Z,18.10
2018-07-16T00:51:01.083Z,18.00
2018-07-16T00:53:29.673Z,17.90
2018-07-16T00:55:58.141Z,17.80
2018-07-16T00:58:26.575Z,17.80
2018-07-16T01:00:55.009Z,17.70
2018-07-16T01:03:23.432Z,17.60
2018-07-16T01:05:51.852Z,17.50
2018-07-16T01:08:20.268Z,17.60
2018-07-16T01:10:48.724Z,17.60
2018-07-16T01:13:17.140Z,17.50
2018-07-16T01:15:45.600Z,17.50
2018-07-16T01:20:42.164Z,17.50
2018-07-16T01:23:11.009Z,17.40
2018-07-16T01:25:39.437Z,17.30
2018-07-16T01:28:07.868Z,17.20
2018-07-16T01:30:36.293Z,17.30
2018-07-16T01:33:04.772Z,17.30
2018-07-16T01:35:33.189Z,17.30
2018-07-16T01:38:01.637Z,17.20
2018-07-16T01:40:30.041Z,17.20
2018-07-16T01:42:58.545Z,17.20
2018-07-16T01:45:27.205Z,17.10
2018-07-16T01:48:02.285Z,17.00
2018-07-16T01:50:30.696Z,17.00
2018-07-16T01:52:59.153Z,17.10
2018-07-16T01:55:27.599Z,17.00
2018-07-16T01:57:56.041Z,17.00
2018-07-16T02:00:24.449Z,16.90
2018-07-16T02:02:52.878Z,16.90
2018-07-16T02:05:22.325Z,16.70
2018-07-16T02:07:50.828Z,16.70
2018-07-16T02:10:19.284Z,16.70
2018-07-16T02:12:48.061Z,16.70
2018-07-16T02:15:16.508Z,16.70
2018-07-16T02:17:44.941Z,16.70
2018-07-16T02:20:13.422Z,16.60
2018-07-16T02:22:41.857Z,16.60
2018-07-16T02:25:10.336Z,16.60
2018-07-16T02:27:38.756Z,16.60
2018-07-16T02:30:07.211Z,16.50
2018-07-16T02:32:35.649Z,16.50
2018-07-16T02:35:04.125Z,16.50
2018-07-16T02:37:32.537Z,16.40
2018-07-16T02:40:00.972Z,16.30
2018-07-16T02:42:29.405Z,16.30
2018-07-16T02:44:57.888Z,16.40
2018-07-16T02:47:26.322Z,16.20
2018-07-16T02:49:54.761Z,16.30
2018-07-16T02:52:23.229Z,16.30
2018-07-16T02:54:51.913Z,16.20
2018-07-16T02:57:20.365Z,16.20
2018-07-16T02:59:48.795Z,16.10
2018-07-16T03:02:17.259Z,16.00
2018-07-16T03:04:45.672Z,16.00
2018-07-16T03:07:14.149Z,15.90
2018-07-16T03:09:42.588Z,15.80
2018-07-16T03:12:11.038Z,15.80
2018-07-16T03:14:39.949Z,15.80
2018-07-16T03:17:08.634Z,15.70
2018-07-16T03:19:37.080Z,15.70
2018-07-16T03:22:05.545Z,15.80
2018-07-16T03:24:34.416Z,15.70
2018-07-16T03:27:03.177Z,15.80
2018-07-16T03:29:31.764Z,15.70
2018-07-16T03:32:00.533Z,15.80
2018-07-16T03:34:28.964Z,15.80
2018-07-16T03:36:57.385Z,15.80
2018-07-16T03:39:25.837Z,15.70
2018-07-16T03:41:54.273Z,15.70
2018-07-16T03:44:22.700Z,15.70
2018-07-16T03:46:51.140Z,15.80
2018-07-16T03:49:19.560Z,15.80
2018-07-16T03:51:47.992Z,15.80
2018-07-16T03:54:16.419Z,15.80
2018-07-16T03:56:44.862Z,15.70
2018-07-16T03:59:13.292Z,15.60
2018-07-16T04:01:41.838Z,15.60
2018-07-16T04:04:10.198Z,15.70
2018-07-16T04:06:38.629Z,15.70
2018-07-16T04:09:07.631Z,15.80
2018-07-16T04:11:36.332Z,15.90
2018-07-16T04:14:04.760Z,16.00
2018-07-16T04:16:33.193Z,16.10
2018-07-16T04:19:01.633Z,16.70
2018-07-16T04:21:30.046Z,18.00
2018-07-16T04:23:58.501Z,18.40
2018-07-16T04:26:26.988Z,17.80
2018-07-16T04:28:55.433Z,17.50
2018-07-16T04:31:23.881Z,17.30
2018-07-16T04:33:54.080Z,17.30
2018-07-16T04:36:23.791Z,17.40
2018-07-16T04:38:52.317Z,18.20
2018-07-16T04:41:20.752Z,19.60
2018-07-16T04:43:49.217Z,20.60
2018-07-16T04:46:17.633Z,21.30
2018-07-16T04:48:47.270Z,22.10
2018-07-16T04:51:15.756Z,22.50
2018-07-16T04:53:44.630Z,22.70
2018-07-16T04:56:13.131Z,22.90
2018-07-16T04:58:41.585Z,24.60
2018-07-16T05:01:10.320Z,25.20
2018-07-16T05:03:38.805Z,24.40
2018-07-16T05:06:07.588Z,23.40
2018-07-16T05:08:36.000Z,23.10
2018-07-16T05:11:04.441Z,22.40
2018-07-16T05:13:33.150Z,21.80
2018-07-16T05:16:01.569Z,21.70
2018-07-16T05:18:30.201Z,21.80
2018-07-16T05:20:58.485Z,22.70
2018-07-16T05:23:26.928Z,24.60
2018-07-16T05:25:55.360Z,23.70
2018-07-16T05:28:23.847Z,23.70
2018-07-16T05:30:52.293Z,23.70
2018-07-16T05:33:20.724Z,23.50
2018-07-16T05:35:49.141Z,23.50
2018-07-16T05:38:17.661Z,23.30
2018-07-16T05:40:46.973Z,23.50
2018-07-16T05:43:15.508Z,22.90
2018-07-16T05:45:43.969Z,24.30
2018-07-16T05:48:12.436Z,25.30
2018-07-16T05:50:40.977Z,24.60
2018-07-16T05:53:09.408Z,26.50
2018-07-16T05:55:37.862Z,24.40
2018-07-16T05:58:06.566Z,26.60
2018-07-16T06:00:35.021Z,28.20
2018-07-16T06:03:03.441Z,27.30
2018-07-16T06:05:31.908Z,28.10
2018-07-16T06:08:00.350Z,28.10
2018-07-16T06:10:28.833Z,28.50
2018-07-16T06:12:57.298Z,28.10
2018-07-16T06:15:25.756Z,27.20
2018-07-16T06:17:54.229Z,28.50
2018-07-16T06:20:22.653Z,28.30
2018-07-16T06:22:51.091Z,27.20
2018-07-16T06:25:19.512Z,30.20
2018-07-16T06:27:48.013Z,27.50
2018-07-16T06:30:16.444Z,28.10
2018-07-16T06:32:44.967Z,30.00
2018-07-16T06:35:13.683Z,27.70
2018-07-16T06:37:43.533Z,28.60
2018-07-16T06:40:11.980Z,28.90
2018-07-16T06:42:40.414Z,28.00
2018-07-16T06:45:08.896Z,28.90
2018-07-16T06:47:37.369Z,29.30
2018-07-16T06:50:06.077Z,31.40
2018-07-16T06:52:34.873Z,32.40
2018-07-16T06:55:03.411Z,30.40
2018-07-16T06:57:31.835Z,28.50
2018-07-16T07:00:00.253Z,27.50
2018-07-16T07:02:28.766Z,28.60
2018-07-16T07:04:57.276Z,30.40
2018-07-16T07:07:25.759Z,30.20
2018-07-16T07:09:54.247Z,29.90
2018-07-16T07:12:22.694Z,29.70
2018-07-16T07:14:51.172Z,29.90
2018-07-16T07:17:19.610Z,29.70
2018-07-16T07:19:48.041Z,28.60
2018-07-16T07:22:16.456Z,30.50
2018-07-16T07:24:44.899Z,29.00
2018-07-16T07:27:13.325Z,29.10
2018-07-16T07:29:41.777Z,30.00
2018-07-16T07:32:10.381Z,30.00
2018-07-16T07:34:39.024Z,28.70
2018-07-16T07:37:07.477Z,27.60
2018-07-16T07:39:35.938Z,28.00
2018-07-16T07:42:04.470Z,26.80
2018-07-16T07:44:32.897Z,27.20
2018-07-16T07:47:01.329Z,27.00
2018-07-16T07:49:29.816Z,26.80
2018-07-16T07:51:58.255Z,26.40
2018-07-16T07:54:26.795Z,27.50
2018-07-16T07:56:55.190Z,30.30
2018-07-16T07:59:23.615Z,28.90
2018-07-16T08:01:52.116Z,28.50
2018-07-16T08:04:20.569Z,27.20
2018-07-16T08:06:54.409Z,26.90
2018-07-16T08:09:22.841Z,27.00
2018-07-16T08:11:51.296Z,28.20
2018-07-16T08:14:19.785Z,28.20
2018-07-16T08:16:48.236Z,29.60
2018-07-16T08:19:16.736Z,28.10
2018-07-16T08:21:45.194Z,28.30
2018-07-16T08:24:13.629Z,29.50
2018-07-16T08:26:42.065Z,28.60
2018-07-16T08:29:10.525Z,27.40
2018-07-16T08:31:38.972Z,26.90
2018-07-16T08:34:07.781Z,28.20
2018-07-16T08:36:36.225Z,29.70
2018-07-16T08:39:05.820Z,28.00
2018-07-16T08:41:34.316Z,27.50
2018-07-16T08:44:03.117Z,28.60
2018-07-16T08:46:31.785Z,30.20
2018-07-16T08:49:00.384Z,30.00
2018-07-16T08:51:28.841Z,28.40
2018-07-16T08:53:57.281Z,28.20
2018-07-16T08:56:25.913Z,29.90
2018-07-16T08:58:54.376Z,29.50
2018-07-16T09:01:22.828Z,28.30
2018-07-16T09:03:51.316Z,28.50
2018-07-16T09:06:20.303Z,30.00
2018-07-16T09:08:48.736Z,27.90
2018-07-16T09:11:17.330Z,28.40
2018-07-16T09:13:45.700Z,29.20
2018-07-16T09:16:14.148Z,29.30
2018-07-16T09:18:42.568Z,28.40
2018-07-16T09:21:11.012Z,28.70
2018-07-16T09:23:39.461Z,29.90
2018-07-16T09:26:07.925Z,28.90
2018-07-16T09:28:36.344Z,28.90
2018-07-16T09:31:04.804Z,28.70
2018-07-16T09:33:33.263Z,30.80
2018-07-16T09:36:01.745Z,29.60
2018-07-16T09:38:30.232Z,29.50
2018-07-16T09:40:59.481Z,29.80
2018-07-16T09:43:27.936Z,29.30
2018-07-16T09:45:56.365Z,28.80
2018-07-16T09:50:52.951Z,28.80
2018-07-16T09:53:21.405Z,28.60
2018-07-16T09:55:49.836Z,29.10
2018-07-16T09:58:18.285Z,29.10
2018-07-16T10:00:52.061Z,28.70
2018-07-16T10:03:20.498Z,28.40
2018-07-16T10:05:48.936Z,28.80
2018-07-16T10:08:17.431Z,28.80
2018-07-16T10:10:45.814Z,28.30
2018-07-16T10:13:14.233Z,28.80
2018-07-16T10:15:42.660Z,29.00
2018-07-16T10:18:11.115Z,31.10
2018-07-16T10:20:39.601Z,30.00
2018-07-16T10:23:08.096Z,28.80
2018-07-16T10:25:36.544Z,29.00
2018-07-16T10:28:04.977Z,28.80
2018-07-16T10:30:33.429Z,29.00
2018-07-16T10:33:01.853Z,28.00
2018-07-16T10:35:30.284Z,28.50
2018-07-16T10:37:58.713Z,29.40
2018-07-16T10:40:27.161Z,29.50
2018-07-16T10:42:55.604Z,30.30
2018-07-16T10:45:24.105Z,29.90
2018-07-16T10:47:52.536Z,30.60
2018-07-16T10:50:20.978Z,30.40
2018-07-16T10:52:49.409Z,29.10
2018-07-16T10:55:17.898Z,28.70
2018-07-16T10:57:46.301Z,29.30
2018-07-16T11:00:14.752Z,29.30
2018-07-16T11:05:11.370Z,29.50
2018-07-16T11:07:39.811Z,30.50
2018-07-16T11:10:08.304Z,31.10
2018-07-16T11:12:36.749Z,31.40
2018-07-16T11:15:06.229Z,31.60
2018-07-16T11:17:34.561Z,30.30
2018-07-16T11:20:03.053Z,29.30
2018-07-16T11:22:31.502Z,30.30
2018-07-16T11:24:59.920Z,30.70
2018-07-16T11:27:28.360Z,31.30
2018-07-16T11:29:56.780Z,31.40
2018-07-16T11:32:25.249Z,31.90
2018-07-16T11:34:53.665Z,32.70
2018-07-16T11:37:22.112Z,32.00
2018-07-16T11:39:50.590Z,31.10
2018-07-16T11:42:19.054Z,31.50
2018-07-16T11:44:47.509Z,29.60
2018-07-16T11:47:15.961Z,29.60
2018-07-16T11:49:44.408Z,30.10
2018-07-16T11:52:12.869Z,30.30
2018-07-16T11:54:41.284Z,29.80
2018-07-16T11:57:09.712Z,30.10
2018-07-16T11:59:38.156Z,29.00
2018-07-16T12:02:06.672Z,30.10
2018-07-16T12:04:35.130Z,29.90
2018-07-16T12:07:03.569Z,30.00
2018-07-16T12:09:32.009Z,29.80
2018-07-16T12:12:00.529Z,29.70
2018-07-16T12:14:28.944Z,30.30
2018-07-16T12:16:57.373Z,30.60
2018-07-16T12:19:25.809Z,30.00
2018-07-16T12:21:54.552Z,29.90
2018-07-16T12:24:22.972Z,31.00
2018-07-16T12:26:51.436Z,31.30
2018-07-16T12:29:19.948Z,32.30
2018-07-16T12:31:48.384Z,31.40
2018-07-16T12:34:16.868Z,30.30
2018-07-16T12:39:13.487Z,30.10
2018-07-16T12:41:41.965Z,30.10
2018-07-16T12:44:10.423Z,30.00
2018-07-16T12:46:38.837Z,31.60
2018-07-16T12:49:07.312Z,32.30
2018-07-16T12:51:35.736Z,30.80
2018-07-16T12:54:04.177Z,31.00
2018-07-16T12:56:32.596Z,30.30
2018-07-16T12:59:01.050Z,30.10
2018-07-16T13:03:57.605Z,29.40
2018-07-16T13:06:26.037Z,30.50
2018-07-16T13:08:55.062Z,30.70
2018-07-16T13:11:23.488Z,30.90
2018-07-16T13:13:51.979Z,31.90
2018-07-16T13:16:20.405Z,31.30
2018-07-16T13:18:48.841Z,30.60
2018-07-16T13:21:17.304Z,30.50
2018-07-16T13:23:45.752Z,32.30
2018-07-16T13:26:14.242Z,31.20
2018-07-16T13:28:42.665Z,30.80
2018-07-16T13:31:11.110Z,31.20
2018-07-16T13:33:39.569Z,31.30
2018-07-16T13:36:08.025Z,30.60
2018-07-16T13:38:36.460Z,31.30
2018-07-16T13:41:04.953Z,33.50
2018-07-16T13:43:33.392Z,31.40
2018-07-16T13:46:01.858Z,32.90
2018-07-16T13:48:30.304Z,31.10
2018-07-16T13:50:58.894Z,30.10
2018-07-16T13:53:27.320Z,31.10
2018-07-16T13:55:55.778Z,31.20
2018-07-16T13:58:24.237Z,30.30
2018-07-16T14:00:52.697Z,30.60
2018-07-16T14:03:21.108Z,30.30
2018-07-16T14:05:49.593Z,30.20
2018-07-16T14:08:18.030Z,30.50
2018-07-16T14:10:46.441Z,29.70
2018-07-16T14:13:14.884Z,29.20
2018-07-16T14:15:43.305Z,29.40
2018-07-16T14:18:11.764Z,29.10
2018-07-16T14:20:40.187Z,30.10
2018-07-16T14:23:08.873Z,31.30
2018-07-16T14:25:37.312Z,31.40
2018-07-16T14:28:05.758Z,30.70
2018-07-16T14:30:34.181Z,30.40
2018-07-16T14:33:02.624Z,30.40
2018-07-16T14:35:31.061Z,30.20
2018-07-16T14:37:59.607Z,30.20
2018-07-16T14:40:28.081Z,30.30
2018-07-16T14:42:56.569Z,30.00
2018-07-16T14:45:24.974Z,29.50
2018-07-16T14:47:53.406Z,29.50
2018-07-16T14:50:21.848Z,29.60
2018-07-16T14:52:50.274Z,29.60
2018-07-16T14:55:18.728Z,30.00
2018-07-16T14:57:47.145Z,30.30
2018-07-16T15:00:15.597Z,29.70
2018-07-16T15:02:44.029Z,29.60
2018-07-16T15:05:13.596Z,29.60
2018-07-16T15:07:42.085Z,29.40
2018-07-16T15:10:10.564Z,29.80
2018-07-16T15:12:39.304Z,29.50
2018-07-16T15:15:07.829Z,29.90
2018-07-16T15:17:36.405Z,29.80
2018-07-16T15:20:05.049Z,29.20
2018-07-16T15:22:33.345Z,29.10
2018-07-16T15:25:01.822Z,29.00
2018-07-16T15:27:30.280Z,29.40
2018-07-16T15:29:58.708Z,29.80
2018-07-16T15:32:27.369Z,29.40
2018-07-16T15:34:55.941Z,29.30
2018-07-16T15:37:24.388Z,29.30
2018-07-16T15:39:53.000Z,29.40
2018-07-16T15:42:21.477Z,29.00
2018-07-16T15:44:49.961Z,28.90
2018-07-16T15:47:18.474Z,29.10
2018-07-16T15:49:47.545Z,28.90
2018-07-16T15:52:15.986Z,28.80
2018-07-16T15:54:44.568Z,28.80
2018-07-16T15:57:13.069Z,29.00
2018-07-16T15:59:41.622Z,29.30
2018-07-16T16:02:10.545Z,29.20
2018-07-16T16:04:38.997Z,29.00
2018-07-16T16:07:08.022Z,28.90
2018-07-16T16:09:38.255Z,28.90
2018-07-16T16:12:07.044Z,28.90
2018-07-16T16:14:35.620Z,28.80
2018-07-16T16:17:04.413Z,28.80
2018-07-16T16:19:32.940Z,28.90
2018-07-16T16:22:01.469Z,28.80
2018-07-16T16:24:30.050Z,29.30
2018-07-16T16:26:58.525Z,29.50
2018-07-16T16:29:26.985Z,29.00
2018-07-16T16:31:55.416Z,28.90
2018-07-16T16:34:23.900Z,28.70
2018-07-16T16:36:52.337Z,28.80
2018-07-16T16:39:20.776Z,28.80
2018-07-16T16:41:49.285Z,28.60
2018-07-16T16:44:17.716Z,28.70
2018-07-16T16:46:46.173Z,28.80
2018-07-16T16:49:14.640Z,28.90
2018-07-16T16:51:43.046Z,28.40
2018-07-16T16:54:11.456Z,28.70
2018-07-16T16:56:39.943Z,28.70
2018-07-16T16:59:08.364Z,28.80
2018-07-16T17:01:36.824Z,28.60
2018-07-16T17:04:05.248Z,28.60
2018-07-16T17:06:33.700Z,28.70
2018-07-16T17:09:02.173Z,28.50
2018-07-16T17:11:30.620Z,28.70
2018-07-16T17:13:59.040Z,28.90
2018-07-16T17:16:27.563Z,28.40
2018-07-16T17:18:56.013Z,28.30
2018-07-16T17:21:24.440Z,28.20
2018-07-16T17:23:52.869Z,28.20
2018-07-16T17:26:21.293Z,28.30
2018-07-16T17:28:49.738Z,28.30
2018-07-16T17:31:18.760Z,28.10
2018-07-16T17:33:47.512Z,28.20
2018-07-16T17:38:44.065Z,28.10
2018-07-16T17:41:12.488Z,28.10
2018-07-16T17:43:40.937Z,28.10
2018-07-16T17:46:09.368Z,28.10
2018-07-16T17:48:37.812Z,28.10
2018-07-16T17:51:06.629Z,28.00
2018-07-16T17:53:35.109Z,28.00
2018-07-16T17:56:03.536Z,27.90
2018-07-16T17:58:32.019Z,27.80
2018-07-16T18:01:00.453Z,27.80
2018-07-16T18:03:28.866Z,28.00
2018-07-16T18:05:57.300Z,28.00
2018-07-16T18:08:25.792Z,27.90
2018-07-16T18:10:54.268Z,27.90
2018-07-16T18:13:22.818Z,28.10
2018-07-16T18:15:51.187Z,28.00
2018-07-16T18:18:19.624Z,27.70
2018-07-16T18:20:48.081Z,27.80
2018-07-16T18:23:16.540Z,27.70
2018-07-16T18:25:45.026Z,27.60
2018-07-16T18:28:13.513Z,27.40
2018-07-16T18:30:41.937Z,27.50
2018-07-16T18:33:10.377Z,27.40
2018-07-16T18:35:38.861Z,27.40
2018-07-16T18:38:07.360Z,27.40
2018-07-16T18:43:03.989Z,27.30
2018-07-16T18:45:32.606Z,27.20
2018-07-16T18:48:01.112Z,27.20
2018-07-16T18:50:29.640Z,27.10
2018-07-16T18:52:58.093Z,27.00
2018-07-16T18:55:26.597Z,27.00
2018-07-16T18:57:55.045Z,27.00
2018-07-16T19:00:23.488Z,27.00
2018-07-16T19:02:51.921Z,26.90
2018-07-16T19:05:20.374Z,26.70
2018-07-16T19:07:48.820Z,26.60
2018-07-16T19:10:17.297Z,26.40
2018-07-16T19:12:45.748Z,26.40
2018-07-16T19:15:23.883Z,26.30
2018-07-16T19:20:21.046Z,26.20
2018-07-16T19:25:17.594Z,26.10
2018-07-16T19:27:46.049Z,26.00
2018-07-16T19:30:14.513Z,25.80
2018-07-16T19:32:43.106Z,25.70
2018-07-16T19:35:11.545Z,25.60
2018-07-16T19:37:40.006Z,25.60
2018-07-16T19:40:09.174Z,25.40
2018-07-16T19:42:38.156Z,25.50
2018-07-16T19:45:06.672Z,25.40
2018-07-16T19:47:36.196Z,25.30
2018-07-16T19:50:05.939Z,25.30
2018-07-16T19:52:34.404Z,25.20
2018-07-16T19:55:02.937Z,25.20
2018-07-16T19:57:31.461Z,25.00
2018-07-16T19:59:59.909Z,24.90
2018-07-16T20:02:28.534Z,24.70
2018-07-16T20:04:56.965Z,24.60
2018-07-16T20:07:25.376Z,24.60
2018-07-16T20:09:53.824Z,24.50
2018-07-16T20:12:30.339Z,24.70
2018-07-16T20:14:59.835Z,24.70
2018-07-16T20:17:28.312Z,24.60
2018-07-16T20:19:57.233Z,24.60
2018-07-16T20:22:26.005Z,24.50
2018-07-16T20:24:54.488Z,24.40
2018-07-16T20:27:22.912Z,24.20
2018-07-16T20:29:51.658Z,24.10
2018-07-16T20:32:20.180Z,24.00
2018-07-16T20:34:48.576Z,23.90
2018-07-16T20:37:17.021Z,23.90
2018-07-16T20:39:45.864Z,23.80
2018-07-16T20:42:14.341Z,23.70
2018-07-16T20:44:43.128Z,23.50
2018-07-16T20:47:11.800Z,23.40
2018-07-16T20:49:40.340Z,23.30
2018-07-16T20:52:09.205Z,23.20
2018-07-16T20:54:37.981Z,23.00
2018-07-16T20:57:06.469Z,22.90
2018-07-16T20:59:34.997Z,22.80
2018-07-16T21:02:03.489Z,22.80
2018-07-16T21:04:31.920Z,22.90
2018-07-16T21:07:00.357Z,22.90
2018-07-16T21:09:28.812Z,22.90
2018-07-16T21:11:57.273Z,22.90
2018-07-16T21:14:25.708Z,23.00
2018-07-16T21:16:54.141Z,23.10
2018-07-16T21:19:22.584Z,23.00
2018-07-16T21:21:51.017Z,23.00
2018-07-16T21:24:19.512Z,23.00
2018-07-16T21:26:47.969Z,23.00
2018-07-16T21:29:16.398Z,23.10
2018-07-16T21:31:44.872Z,23.30
2018-07-16T21:34:13.309Z,23.30
2018-07-16T21:36:41.720Z,23.30
2018-07-16T21:39:10.169Z,23.20
2018-07-16T21:41:38.635Z,23.20
2018-07-16T21:44:07.145Z,23.00
2018-07-16T21:46:35.724Z,22.90
2018-07-16T21:49:04.129Z,22.90
2018-07-16T21:51:32.607Z,22.90
2018-07-16T21:54:01.025Z,22.90
2018-07-16T21:56:29.452Z,22.90
2018-07-16T21:58:57.896Z,22.90
2018-07-16T22:01:26.349Z,22.90
2018-07-16T22:03:54.816Z,23.00
2018-07-16T22:08:51.431Z,22.90
2018-07-16T22:11:19.863Z,22.90
2018-07-16T22:13:48.318Z,22.90
2018-07-16T22:16:16.786Z,22.90
2018-07-16T22:18:45.212Z,23.00
2018-07-16T22:21:13.628Z,23.00
2018-07-16T22:23:42.053Z,23.00
2018-07-16T22:26:10.536Z,22.90
2018-07-16T22:28:38.980Z,22.90
2018-07-16T22:31:07.411Z,22.90
2018-07-16T22:33:35.832Z,22.80
2018-07-16T22:36:04.350Z,22.80
2018-07-16T22:38:32.784Z,22.80
2018-07-16T22:41:01.233Z,22.70
2018-07-16T22:43:29.706Z,22.80
2018-07-16T22:45:58.151Z,22.60
2018-07-16T22:48:26.576Z,22.60
2018-07-16T22:50:55.013Z,22.60
2018-07-16T22:53:23.474Z,22.50
2018-07-16T22:55:51.925Z,22.60
2018-07-16T22:58:20.410Z,22.60
2018-07-16T23:00:48.871Z,22.50
2018-07-16T23:03:17.297Z,22.60
2018-07-16T23:05:46.041Z,22.50
2018-07-16T23:08:16.486Z,22.50
2018-07-16T23:10:44.912Z,22.50
2018-07-16T23:13:13.448Z,22.50
2018-07-16T23:15:41.956Z,22.50
2018-07-16T23:18:10.429Z,22.50
2018-07-16T23:20:39.285Z,22.50
2018-07-16T23:23:07.784Z,22.50
2018-07-16T23:25:36.241Z,22.40
2018-07-16T23:28:05.084Z,22.40
2018-07-16T23:30:34.458Z,22.50
2018-07-16T23:33:02.933Z,22.40
2018-07-16T23:35:31.479Z,22.50
2018-07-16T23:38:00.112Z,22.50
2018-07-16T23:40:28.585Z,22.50
2018-07-16T23:42:57.216Z,22.40
2018-07-16T23:45:25.692Z,22.50
2018-07-16T23:47:54.163Z,22.40
2018-07-16T23:50:22.662Z,22.30
2018-07-16T23:52:51.100Z,22.30
2018-07-16T23:55:19.532Z,22.30
2018-07-16T23:57:47.957Z,22.20
